Time;durP1;ratioP1;P1;durP2;ratioP2;P2;SDS_P1;SDS_P2;PMS_P1;PMS_P2;Temp;Humidity;BMP_temperature;BMP_pressure;BME280_temperature;BME280_humidity;BME280_pressure;Samples;Min_cycle;Max_cycle;Signal;HPM_P1;HPM_P2
2021/04/01 00:00:09;;;;;;;35.88;17.85;;;15.90;92.70;;;;;;5096817;28;20025;-72
2021/04/01 00:02:35;;;;;;;37.58;17.33;;;15.90;91.80;;;;;;5080953;28;20031;-72
2021/04/01 00:05:01;;;;;;;39.42;17.52;;;16.00;91.80;;;;;;5076877;28;20037;-73
2021/04/01 00:07:28;;;;;;;39.45;17.77;;;15.90;92.50;;;;;;5076092;28;20050;-75
2021/04/01 00:10:15;;;;;;;41.45;18.23;;;15.80;92.20;;;;;;5075190;28;20472;-72
2021/04/01 00:12:41;;;;;;;37.08;17.27;;;15.80;92.20;;;;;;5080973;28;20168;-73
2021/04/01 00:15:10;;;;;;;40.17;18.17;;;15.70;91.70;;;;;;5077432;28;20045;-74
2021/04/01 00:17:38;;;;;;;36.45;17.27;;;15.70;92.30;;;;;;5072081;28;20033;-74
2021/04/01 00:20:09;;;;;;;46.92;19.48;;;15.70;93.50;;;;;;5073655;28;20024;-73
2021/04/01 00:22:42;;;;;;;44.83;18.13;;;15.60;93.20;;;;;;5076005;28;20024;-73
2021/04/01 00:25:11;;;;;;;37.97;17.48;;;15.60;93.50;;;;;;5073050;28;20488;-72
2021/04/01 00:27:37;;;;;;;44.15;19.50;;;15.70;93.00;;;;;;5076105;28;20036;-72
2021/04/01 00:30:05;;;;;;;42.42;19.20;;;15.70;92.10;;;;;;5074498;28;20024;-72
2021/04/01 00:32:31;;;;;;;39.55;17.88;;;15.80;92.10;;;;;;5067788;28;20012;-75
2021/04/01 00:35:24;;;;;;;41.50;18.15;;;15.80;92.40;;;;;;5076242;28;20013;-75
2021/04/01 00:37:59;;;;;;;41.72;18.73;;;16.00;92.00;;;;;;5090668;28;20028;-72
2021/04/01 00:40:26;;;;;;;44.35;18.40;;;15.90;92.30;;;;;;5089890;28;20028;-73
2021/04/01 00:42:51;;;;;;;46.88;18.45;;;15.80;92.70;;;;;;5079226;28;20033;-72
2021/04/01 00:45:18;;;;;;;46.55;19.90;;;15.80;93.10;;;;;;5081272;28;20074;-75
2021/04/01 00:47:49;;;;;;;48.28;18.48;;;15.60;93.10;;;;;;5080960;28;20025;-75
2021/04/01 00:50:19;;;;;;;37.55;17.73;;;15.50;94.40;;;;;;5076579;28;20173;-73
2021/04/01 00:52:45;;;;;;;40.47;19.08;;;15.50;96.30;;;;;;5073681;28;20524;-76
2021/04/01 00:55:11;;;;;;;34.35;17.77;;;15.40;96.10;;;;;;5077294;28;20105;-75
2021/04/01 00:57:39;;;;;;;41.20;16.67;;;15.30;96.60;;;;;;5078933;28;20681;-74
2021/04/01 01:00:08;;;;;;;42.58;18.25;;;15.30;98.00;;;;;;5071695;28;20030;-74
2021/04/01 01:02:34;;;;;;;44.38;18.88;;;15.20;98.20;;;;;;5079518;28;20503;-75
2021/04/01 01:05:01;;;;;;;40.45;19.17;;;15.20;98.60;;;;;;5076922;28;20050;-74
2021/04/01 01:07:26;;;;;;;41.70;18.95;;;15.10;98.80;;;;;;5079114;28;20029;-74
2021/04/01 01:09:52;;;;;;;36.28;17.85;;;15.20;98.60;;;;;;5079859;28;20072;-72
2021/04/01 01:12:19;;;;;;;38.92;17.98;;;15.20;98.80;;;;;;5064297;28;20548;-73
2021/04/01 01:14:45;;;;;;;36.55;18.00;;;15.30;98.00;;;;;;5071339;28;20148;-74
2021/04/01 01:17:15;;;;;;;35.15;17.02;;;15.40;97.70;;;;;;5079300;28;20029;-73
2021/04/01 01:19:46;;;;;;;41.40;18.48;;;15.40;95.60;;;;;;5063329;28;20103;-73
2021/04/01 01:22:11;;;;;;;44.88;18.95;;;15.50;94.50;;;;;;5081514;28;20035;-74
2021/04/01 01:24:38;;;;;;;42.53;19.73;;;15.50;95.60;;;;;;5061535;28;20040;-72
2021/04/01 01:27:20;;;;;;;37.80;17.83;;;15.50;94.90;;;;;;5084193;28;20032;-78
2021/04/01 01:30:15;;;;;;;41.45;17.70;;;15.60;95.90;;;;;;5088651;28;20078;-79
2021/04/01 01:32:55;;;;;;;39.33;18.10;;;15.60;97.00;;;;;;5091471;28;20036;-79
2021/04/01 01:35:27;;;;;;;37.08;18.92;;;15.60;97.40;;;;;;5093710;28;20012;-73
2021/04/01 01:37:57;;;;;;;;;;;15.60;97.10;;;;;;5090769;28;20036;-76
2021/04/01 01:40:45;;;;;;;38.95;18.23;;;15.60;97.00;;;;;;5083238;28;19916;-79
2021/04/01 01:43:15;;;;;;;37.38;18.45;;;15.60;96.50;;;;;;5091878;28;20024;-79
2021/04/01 01:45:55;;;;;;;36.88;16.88;;;15.40;98.70;;;;;;5092336;28;20704;-78
2021/04/01 01:48:30;;;;;;;37.10;17.60;;;15.30;99.90;;;;;;5078344;28;20120;-80
2021/04/01 01:50:59;;;;;;;35.33;17.58;;;15.30;99.90;;;;;;5083469;28;20033;-73
2021/04/01 01:53:25;;;;;;;34.85;17.10;;;15.30;99.90;;;;;;5068710;28;20107;-74
2021/04/01 01:55:51;;;;;;;34.90;16.67;;;15.40;99.30;;;;;;5070535;28;20510;-72
2021/04/01 01:58:17;;;;;;;34.53;18.30;;;15.50;99.80;;;;;;5068641;28;20021;-73
2021/04/01 02:00:47;;;;;;;37.22;18.17;;;15.60;99.40;;;;;;5073885;28;20029;-75
2021/04/01 02:03:13;;;;;;;39.30;17.70;;;15.60;99.20;;;;;;5073819;28;20115;-73
2021/04/01 02:05:40;;;;;;;37.22;17.48;;;15.70;99.40;;;;;;5074638;28;20068;-73
2021/04/01 02:08:07;;;;;;;42.08;18.02;;;15.70;99.80;;;;;;5075812;28;20118;-73
2021/04/01 02:10:35;;;;;;;36.00;16.73;;;15.60;99.80;;;;;;5076902;28;20582;-74
2021/04/01 02:13:02;;;;;;;33.53;16.50;;;15.40;99.80;;;;;;5082136;28;20025;-73
2021/04/01 02:15:35;;;;;;;37.80;18.35;;;15.30;99.00;;;;;;5080894;28;20078;-74
2021/04/01 02:18:07;;;;;;;39.42;17.30;;;15.10;99.60;;;;;;5084720;28;20028;-74
2021/04/01 02:20:43;;;;;;;33.38;15.82;;;14.80;99.90;;;;;;5079676;28;20033;-75
2021/04/01 02:23:21;;;;;;;37.10;17.50;;;14.90;99.90;;;;;;5069773;28;20028;-75
2021/04/01 02:25:48;;;;;;;37.83;18.15;;;15.00;99.90;;;;;;5069748;28;20024;-75
2021/04/01 02:28:15;;;;;;;40.38;19.42;;;14.90;99.90;;;;;;5072779;28;20380;-72
2021/04/01 02:30:46;;;;;;;41.83;17.40;;;14.80;99.90;;;;;;5071859;28;20035;-74
2021/04/01 02:33:12;;;;;;;39.47;19.10;;;14.80;98.80;;;;;;5072417;28;20102;-75
2021/04/01 02:35:38;;;;;;;42.70;17.98;;;14.70;98.60;;;;;;5072151;28;20022;-72
2021/04/01 02:38:05;;;;;;;43.78;20.80;;;14.40;98.90;;;;;;5074967;28;20020;-75
2021/04/01 02:40:32;;;;;;;43.60;20.48;;;14.20;99.00;;;;;;5085349;28;20033;-77
2021/04/01 02:42:57;;;;;;;44.17;18.00;;;14.10;99.10;;;;;;5092689;28;20033;-76
2021/04/01 02:45:23;;;;;;;50.20;21.42;;;14.10;98.70;;;;;;5095608;28;20547;-76
2021/04/01 02:47:49;;;;;;;57.05;20.05;;;14.10;98.30;;;;;;5091756;28;20040;-76
2021/04/01 02:50:15;;;;;;;50.25;19.40;;;14.10;98.30;;;;;;5094342;28;20020;-77
2021/04/01 02:52:41;;;;;;;44.67;18.58;;;14.10;98.10;;;;;;5093441;28;20020;-73
2021/04/01 02:55:09;;;;;;;56.50;18.77;;;14.20;97.80;;;;;;5094905;28;20043;-74
2021/04/01 02:57:35;;;;;;;43.78;19.65;;;14.10;97.80;;;;;;5092557;28;20084;-72
2021/04/01 03:00:05;;;;;;;43.25;19.02;;;14.10;97.70;;;;;;5075368;28;20117;-75
2021/04/01 03:02:30;;;;;;;48.88;20.00;;;14.20;97.70;;;;;;5070383;28;20075;-74
2021/04/01 03:05:03;;;;;;;47.58;19.48;;;14.20;97.70;;;;;;5060220;28;20028;-73
2021/04/01 03:07:30;;;;;;;41.90;18.42;;;14.20;98.00;;;;;;5072397;28;20029;-73
2021/04/01 03:09:55;;;;;;;46.80;18.90;;;14.10;98.40;;;;;;5073906;28;20104;-72
2021/04/01 03:12:21;;;;;;;50.83;19.20;;;14.10;98.30;;;;;;5042266;28;20052;-75
2021/04/01 03:14:47;;;;;;;45.40;18.85;;;14.00;98.60;;;;;;5071379;28;20017;-75
2021/04/01 03:17:12;;;;;;;49.80;20.95;;;14.00;98.60;;;;;;5076463;28;20043;-72
2021/04/01 03:19:38;;;;;;;44.80;19.67;;;14.00;98.50;;;;;;5068030;28;20115;-73
2021/04/01 03:22:04;;;;;;;48.13;19.55;;;14.00;98.90;;;;;;5067230;28;20502;-74
2021/04/01 03:24:30;;;;;;;47.17;19.77;;;13.90;99.00;;;;;;5069784;28;20549;-75
2021/04/01 03:26:55;;;;;;;45.78;19.55;;;13.90;99.20;;;;;;5070577;28;20056;-78
2021/04/01 03:29:21;;;;;;;42.60;19.15;;;13.90;99.30;;;;;;5068930;28;20051;-75
2021/04/01 03:31:47;;;;;;;49.20;19.48;;;14.00;99.40;;;;;;5075727;28;20475;-73
2021/04/01 03:34:12;;;;;;;48.40;19.02;;;13.90;99.20;;;;;;5076819;28;20028;-73
2021/04/01 03:36:39;;;;;;;46.15;19.63;;;14.00;99.30;;;;;;5071295;28;20024;-75
2021/04/01 03:39:04;;;;;;;46.35;19.85;;;14.00;99.60;;;;;;5068512;28;20050;-75
2021/04/01 03:41:30;;;;;;;43.45;19.65;;;13.80;99.90;;;;;;5067726;28;20116;-76
2021/04/01 03:43:56;;;;;;;44.75;19.02;;;13.60;99.90;;;;;;5070394;28;20082;-73
2021/04/01 03:46:21;;;;;;;43.25;18.45;;;13.50;99.90;;;;;;5068587;28;20658;-72
2021/04/01 03:48:47;;;;;;;46.05;19.20;;;13.30;99.90;;;;;;5068314;28;20035;-74
2021/04/01 03:51:13;;;;;;;46.95;20.55;;;13.20;99.90;;;;;;5068598;28;20033;-74
2021/04/01 03:53:38;;;;;;;44.50;20.98;;;13.20;99.90;;;;;;5066315;28;20080;-74
2021/04/01 03:56:04;;;;;;;46.47;20.98;;;13.10;99.90;;;;;;5068966;28;20107;-73
2021/04/01 04:01:18;;;;;;;42.65;19.00;;;13.10;99.90;;;;;;5069832;28;20029;-74
2021/04/01 04:04:11;;;;;;;39.30;18.73;;;13.10;99.90;;;;;;5065748;28;20160;-74
2021/04/01 04:09:36;;;;;;;42.72;18.13;;;13.10;99.90;;;;;;5070870;28;20202;-73
2021/04/01 04:12:12;;;;;;;40.65;17.85;;;13.10;99.90;;;;;;5065775;28;20051;-72
2021/04/01 04:14:47;;;;;;;42.40;19.33;;;13.00;99.90;;;;;;5081947;28;20052;-73
2021/04/01 04:17:13;;;;;;;40.67;19.23;;;12.90;99.90;;;;;;5080839;28;20115;-75
2021/04/01 04:19:39;;;;;;;46.80;19.05;;;12.80;99.90;;;;;;5084296;28;20024;-77
2021/04/01 04:22:09;;;;;;;44.70;18.98;;;12.70;99.90;;;;;;5096233;28;20008;-74
2021/04/01 04:24:37;;;;;;;40.45;18.52;;;12.60;99.90;;;;;;5088869;28;20188;-73
2021/04/01 04:29:47;;;;;;;43.78;19.83;;;12.50;99.90;;;;;;5081046;28;20434;-72
2021/04/01 04:32:13;;;;;;;49.17;19.85;;;12.40;99.90;;;;;;5074658;28;20025;-76
2021/04/01 04:34:39;;;;;;;40.25;19.38;;;12.40;99.90;;;;;;5075430;28;20020;-74
2021/04/01 04:37:04;;;;;;;43.70;20.58;;;12.50;99.90;;;;;;5074442;28;20021;-74
2021/04/01 04:39:30;;;;;;;46.40;20.38;;;12.40;99.90;;;;;;5075145;28;20075;-74
2021/04/01 04:41:56;;;;;;;44.92;20.83;;;12.30;99.90;;;;;;5075258;28;20032;-75
2021/04/01 04:44:27;;;;;;;47.55;20.83;;;12.30;99.90;;;;;;5076605;28;20028;-76
2021/04/01 04:46:53;;;;;;;46.37;21.67;;;12.30;99.90;;;;;;5081465;28;20023;-77
2021/04/01 04:49:19;;;;;;;45.70;21.88;;;12.30;99.90;;;;;;5083239;28;20096;-75
2021/04/01 04:51:45;;;;;;;44.40;19.40;;;12.30;99.90;;;;;;5074695;28;20086;-75
2021/04/01 04:54:10;;;;;;;39.90;19.58;;;12.30;99.90;;;;;;5065009;28;20020;-75
2021/04/01 04:56:36;;;;;;;47.10;20.98;;;12.40;99.90;;;;;;5073897;28;20040;-75
2021/04/01 04:59:12;;;;;;;43.90;20.73;;;12.30;99.90;;;;;;5072393;28;20086;-74
2021/04/01 05:07:07;;;;;;;43.00;19.55;;;12.30;99.90;;;;;;5072546;28;20110;-73
2021/04/01 05:09:33;;;;;;;45.10;19.98;;;12.30;99.90;;;;;;5071754;28;20052;-75
2021/04/01 05:11:58;;;;;;;44.63;19.90;;;12.30;99.90;;;;;;5069531;28;20032;-74
2021/04/01 05:14:24;;;;;;;48.17;19.45;;;12.30;99.90;;;;;;5066843;28;20490;-73
2021/04/01 05:16:50;;;;;;;42.42;19.30;;;12.30;99.90;;;;;;5069279;28;20043;-74
2021/04/01 05:19:16;;;;;;;49.20;20.05;;;12.30;99.90;;;;;;5069130;28;20163;-73
2021/04/01 05:24:08;;;;;;;43.47;20.08;;;12.50;99.90;;;;;;5070741;28;20040;-73
2021/04/01 05:26:48;;;;;;;44.40;18.42;;;12.50;99.90;;;;;;5068554;28;20039;-74
2021/04/01 05:29:22;;;;;;;49.55;20.55;;;12.40;99.90;;;;;;5069769;28;20036;-72
2021/04/01 05:31:49;;;;;;;45.67;20.77;;;12.30;99.90;;;;;;5070066;28;20950;-74
2021/04/01 05:34:16;;;;;;;47.17;21.95;;;12.20;99.90;;;;;;5072190;28;20021;-74
2021/04/01 05:36:44;;;;;;;45.22;21.08;;;12.10;99.90;;;;;;5069735;28;20017;-75
2021/04/01 05:39:12;;;;;;;44.40;20.77;;;12.10;99.90;;;;;;5069162;28;20056;-72
2021/04/01 05:41:40;;;;;;;45.25;19.52;;;12.10;99.90;;;;;;5073704;28;20024;-74
2021/04/01 05:46:45;;;;;;;45.47;22.20;;;12.20;99.90;;;;;;5073056;28;20025;-74
2021/04/01 06:05:43;;;;;;;67.57;25.67;;;12.60;99.90;;;;;;5071400;28;20024;-71
2021/04/01 06:08:24;;;;;;;76.15;29.67;;;12.60;99.90;;;;;;5069503;28;20025;-72
2021/04/01 06:10:51;;;;;;;70.40;31.27;;;12.50;99.90;;;;;;5072855;28;20016;-73
2021/04/01 06:13:22;;;;;;;91.80;37.63;;;12.50;99.90;;;;;;5061898;28;20021;-71
2021/04/01 06:15:50;;;;;;;87.95;37.67;;;12.40;99.90;;;;;;5072522;28;20021;-72
2021/04/01 06:18:21;;;;;;;90.50;38.65;;;12.40;99.90;;;;;;5072215;28;20024;-73
2021/04/01 06:20:50;;;;;;;85.07;36.72;;;12.30;99.90;;;;;;5072665;28;20033;-74
2021/04/01 06:23:30;;;;;;;84.70;39.13;;;12.20;99.90;;;;;;5072352;28;20078;-74
2021/04/01 06:25:58;;;;;;;100.95;41.10;;;12.20;99.90;;;;;;5062989;28;20662;-74
2021/04/01 06:28:47;;;;;;;96.68;42.47;;;12.00;99.90;;;;;;5072537;28;20024;-72
2021/04/01 06:31:19;;;;;;;99.63;42.45;;;11.90;99.90;;;;;;5072316;28;20365;-73
2021/04/01 06:33:49;;;;;;;110.22;48.05;;;11.90;99.90;;;;;;5072198;28;20043;-73
2021/04/01 06:36:22;;;;;;;119.72;50.78;;;11.80;99.90;;;;;;5062540;28;20495;-74
2021/04/01 06:38:48;;;;;;;121.50;56.95;;;11.70;99.90;;;;;;5073392;28;20021;-73
2021/04/01 06:41:40;;;;;;;151.82;59.50;;;11.60;99.90;;;;;;5073327;28;20078;-72
2021/04/01 06:44:16;;;;;;;143.93;61.45;;;11.40;99.90;;;;;;5063030;28;20545;-71
2021/04/01 06:46:46;;;;;;;146.63;63.90;;;11.30;99.90;;;;;;5072339;28;20016;-72
2021/04/01 06:52:04;;;;;;;147.30;63.42;;;11.20;99.90;;;;;;5071219;28;20024;-72
2021/04/01 06:54:36;;;;;;;142.00;62.38;;;11.20;99.90;;;;;;5062234;28;20397;-75
2021/04/01 07:00:32;;;;;;;144.50;64.10;;;11.30;99.90;;;;;;5072368;28;20032;-74
2021/04/01 07:03:16;;;;;;;144.63;67.75;;;11.20;99.90;;;;;;5063617;28;20044;-73
2021/04/01 07:05:54;;;;;;;142.23;65.78;;;11.20;99.90;;;;;;5068863;28;20074;-74
2021/04/01 07:08:43;;;;;;;148.43;64.03;;;11.20;99.90;;;;;;5071728;28;20020;-72
2021/04/01 07:11:25;;;;;;;144.43;66.53;;;11.20;99.90;;;;;;5071290;28;20099;-73
2021/04/01 07:14:05;;;;;;;134.50;61.55;;;11.20;99.90;;;;;;5080655;28;20024;-77
2021/04/01 07:47:24;;;;;;;144.30;63.20;;;12.00;99.90;;;;;;5071241;28;20059;-75
2021/04/01 07:49:52;;;;;;;145.18;61.92;;;12.00;99.90;;;;;;5072823;28;20044;-72
2021/04/01 07:52:22;;;;;;;146.82;59.35;;;12.00;99.90;;;;;;5068363;28;20614;-72
2021/04/01 08:03:18;;;;;;;152.35;67.45;;;12.20;99.90;;;;;;5081891;28;20111;-74
2021/04/01 08:05:46;;;;;;;160.05;67.35;;;12.00;99.90;;;;;;5085441;28;20028;-74
2021/04/01 08:08:16;;;;;;;160.80;68.45;;;12.00;99.90;;;;;;5079474;28;20587;-72
2021/04/01 08:10:43;;;;;;;144.80;64.05;;;11.80;99.90;;;;;;5060815;28;20032;-74
2021/04/01 08:13:13;;;;;;;159.20;66.20;;;11.80;99.90;;;;;;5075396;28;20020;-72
2021/04/01 08:15:53;;;;;;;157.13;68.82;;;11.90;99.90;;;;;;5059045;28;20039;-76
2021/04/01 08:18:33;;;;;;;156.38;65.57;;;11.80;99.90;;;;;;5076268;28;20320;-73
2021/04/01 08:21:02;;;;;;;157.52;69.35;;;12.00;99.90;;;;;;5073759;28;20025;-74
2021/04/01 08:23:31;;;;;;;161.38;68.43;;;12.00;99.90;;;;;;5075222;28;20037;-76
2021/04/01 08:31:32;;;;;;;167.07;69.95;;;11.90;99.90;;;;;;5062357;28;20021;-74
2021/04/01 08:36:27;;;;;;;150.60;70.30;;;11.90;99.90;;;;;;5074180;28;20021;-73
2021/04/01 08:38:55;;;;;;;160.63;72.20;;;11.90;99.90;;;;;;5074637;28;20044;-74
2021/04/01 08:41:36;;;;;;;153.85;65.78;;;11.90;99.90;;;;;;5071398;28;20044;-75
2021/04/01 08:44:39;;;;;;;156.55;65.32;;;12.10;99.90;;;;;;5073169;28;20078;-73
2021/04/01 08:47:29;;;;;;;161.55;67.63;;;12.20;99.90;;;;;;5060576;28;20025;-74
2021/04/01 08:50:27;;;;;;;139.23;63.63;;;12.30;99.90;;;;;;5072977;28;20097;-71
2021/04/01 08:53:20;;;;;;;142.50;60.00;;;12.00;99.90;;;;;;5071236;28;20025;-74
2021/04/01 08:56:26;;;;;;;143.05;61.33;;;12.10;99.90;;;;;;5080464;28;20013;-73
2021/04/01 08:59:01;;;;;;;132.07;55.20;;;12.10;99.90;;;;;;5061862;28;20103;-74
2021/04/01 09:01:35;;;;;;;114.63;47.33;;;12.10;99.90;;;;;;5087423;28;20264;-72
2021/04/01 09:04:03;;;;;;;107.78;46.13;;;12.30;99.90;;;;;;5086768;28;20423;-75
2021/04/01 09:06:50;;;;;;;107.10;42.60;;;12.50;99.90;;;;;;5085089;28;20043;-76
2021/04/01 09:09:29;;;;;;;99.93;40.10;;;12.40;99.90;;;;;;5076595;28;20012;-73
2021/04/01 09:14:33;;;;;;;83.50;31.30;;;12.70;99.90;;;;;;5075355;28;20036;-75
2021/04/01 09:19:36;;;;;;;71.57;27.45;;;12.10;99.90;;;;;;5074569;28;20024;-75
2021/04/01 09:22:30;;;;;;;70.53;26.80;;;12.30;99.90;;;;;;5077081;28;20528;-72
2021/04/01 09:24:58;;;;;;;63.90;24.50;;;12.60;99.90;;;;;;5074312;28;20053;-74
2021/04/01 09:27:24;;;;;;;64.57;23.10;;;12.70;99.90;;;;;;5079990;28;20028;-75
2021/04/01 09:30:07;;;;;;;63.67;23.05;;;12.90;99.90;;;;;;5080388;28;20024;-73
2021/04/01 09:32:35;;;;;;;56.45;21.52;;;12.70;99.90;;;;;;5080402;28;20028;-73
2021/04/01 09:35:03;;;;;;;54.45;19.67;;;12.50;99.90;;;;;;5077660;28;20223;-72
2021/04/01 09:37:29;;;;;;;46.75;15.95;;;12.60;99.90;;;;;;5060355;28;20392;-76
2021/04/01 09:40:12;;;;;;;49.85;16.92;;;12.80;99.90;;;;;;5063350;28;20017;-73
2021/04/01 09:42:42;;;;;;;40.78;13.05;;;12.70;99.90;;;;;;5073197;28;20074;-74
2021/04/01 09:45:11;;;;;;;43.35;14.30;;;12.90;99.90;;;;;;5067349;28;20436;-75
2021/04/01 09:47:50;;;;;;;37.47;13.05;;;12.70;99.90;;;;;;5069261;28;20052;-74
2021/04/01 09:50:17;;;;;;;31.35;10.40;;;12.70;99.90;;;;;;5074271;28;20020;-76
2021/04/01 09:52:55;;;;;;;26.83;8.50;;;12.80;99.90;;;;;;5073370;28;20078;-75
2021/04/01 09:55:21;;;;;;;23.00;7.75;;;12.50;99.90;;;;;;5075540;28;20029;-74
2021/04/01 09:57:49;;;;;;;28.02;6.72;;;12.40;99.90;;;;;;5073654;28;20032;-76
2021/04/01 10:00:37;;;;;;;25.55;6.07;;;12.80;99.90;;;;;;5076071;28;20047;-76
2021/04/01 10:03:07;;;;;;;16.63;6.40;;;12.40;99.90;;;;;;5078534;28;20033;-72
2021/04/01 10:05:47;;;;;;;18.27;5.50;;;12.20;99.90;;;;;;5077206;28;20477;-75
2021/04/01 10:08:27;;;;;;;25.58;6.85;;;12.50;99.90;;;;;;5077723;28;20031;-73
2021/04/01 10:10:57;;;;;;;20.23;5.57;;;12.60;99.90;;;;;;5073200;28;20017;-77
2021/04/01 10:13:29;;;;;;;24.23;5.18;;;13.00;99.90;;;;;;5078344;28;20025;-73
2021/04/01 10:15:58;;;;;;;26.23;5.60;;;12.90;99.90;;;;;;5076694;28;20113;-75
2021/04/01 10:18:40;;;;;;;20.27;4.72;;;12.80;99.90;;;;;;5079776;28;20409;-73
2021/04/01 10:21:10;;;;;;;22.23;5.45;;;13.00;99.90;;;;;;5076324;28;20020;-71
2021/04/01 10:23:54;;;;;;;19.80;4.75;;;13.00;99.90;;;;;;5078413;28;20016;-73
2021/04/01 10:26:32;;;;;;;18.05;5.32;;;12.70;99.90;;;;;;5064523;28;20021;-72
2021/04/01 10:31:49;;;;;;;16.23;3.63;;;12.70;99.90;;;;;;5076732;28;20020;-72
2021/04/01 10:34:26;;;;;;;;;;;12.90;99.90;;;;;;5075442;28;20047;-74
2021/04/01 10:36:53;;;;;;;18.08;3.40;;;13.00;99.90;;;;;;5075895;28;19998;-73
2021/04/01 10:39:21;;;;;;;10.35;4.30;;;13.30;99.90;;;;;;5071778;28;20024;-75
2021/04/01 10:41:55;;;;;;;19.85;4.75;;;13.40;99.90;;;;;;5076527;28;20031;-74
2021/04/01 10:44:23;;;;;;;14.70;3.97;;;13.30;99.90;;;;;;5074839;28;20028;-73
2021/04/01 10:46:55;;;;;;;20.38;4.22;;;13.30;99.90;;;;;;5077342;28;20024;-73
2021/04/01 10:49:23;;;;;;;17.00;3.67;;;13.30;99.90;;;;;;5073694;28;20025;-76
2021/04/01 10:51:52;;;;;;;11.65;3.67;;;13.40;99.90;;;;;;5072319;28;20408;-74
2021/04/01 10:54:19;;;;;;;11.65;3.05;;;13.90;99.90;;;;;;5062667;28;20063;-73
2021/04/01 10:56:52;;;;;;;14.27;2.85;;;13.80;99.90;;;;;;5074792;28;20024;-75
2021/04/01 10:59:30;;;;;;;;;;;13.80;99.90;;;;;;5062632;28;20074;-75
2021/04/01 11:01:56;;;;;;;12.73;3.30;;;14.10;99.90;;;;;;5040929;28;19915;-75
2021/04/01 11:04:23;;;;;;;10.50;2.45;;;13.90;99.90;;;;;;5074865;28;20032;-73
2021/04/01 11:06:51;;;;;;;17.67;3.40;;;13.40;99.90;;;;;;5074683;28;20080;-76
2021/04/01 11:09:19;;;;;;;16.98;2.88;;;13.60;99.90;;;;;;5072901;28;20051;-73
2021/04/01 11:12:14;;;;;;;9.00;2.50;;;13.40;99.90;;;;;;5075682;28;20021;-74
2021/04/01 11:14:42;;;;;;;14.88;3.08;;;13.80;99.90;;;;;;5074387;28;20028;-75
2021/04/01 11:17:09;;;;;;;11.85;3.05;;;13.70;99.90;;;;;;5071839;28;20108;-74
2021/04/01 11:19:36;;;;;;;16.55;2.78;;;14.10;99.90;;;;;;5073333;28;20084;-73
2021/04/01 11:22:03;;;;;;;10.27;2.45;;;14.20;99.90;;;;;;5064391;28;20036;-74
2021/04/01 11:24:34;;;;;;;12.13;2.80;;;14.40;99.90;;;;;;5072744;28;20033;-73
2021/04/01 11:27:26;;;;;;;16.42;3.10;;;14.10;99.90;;;;;;5075461;28;20496;-74
2021/04/01 11:29:56;;;;;;;16.77;3.47;;;14.20;99.90;;;;;;5062723;28;20060;-75
2021/04/01 11:32:24;;;;;;;19.83;3.20;;;14.40;99.90;;;;;;5075015;28;20025;-76
2021/04/01 11:34:56;;;;;;;17.70;3.63;;;14.20;99.90;;;;;;5075560;28;20020;-74
2021/04/01 11:37:25;;;;;;;14.00;2.45;;;14.10;99.90;;;;;;5061130;28;20048;-77
2021/04/01 11:39:57;;;;;;;14.05;3.10;;;14.10;99.90;;;;;;5073204;28;20055;-76
2021/04/01 11:42:26;;;;;;;9.20;2.85;;;14.50;99.90;;;;;;5071841;28;20021;-76
2021/04/01 11:44:57;;;;;;;18.60;3.05;;;14.50;99.90;;;;;;5086935;28;20008;-75
2021/04/01 11:47:29;;;;;;;14.95;3.40;;;14.40;99.90;;;;;;5087741;28;20035;-73
2021/04/01 11:49:56;;;;;;;18.95;2.80;;;14.00;99.90;;;;;;5092883;28;20017;-78
2021/04/01 11:52:24;;;;;;;12.80;2.80;;;14.00;99.90;;;;;;5092216;28;20096;-74
2021/04/01 11:54:52;;;;;;;13.30;3.10;;;14.40;99.90;;;;;;5093315;28;20072;-76
2021/04/01 11:57:19;;;;;;;15.25;2.85;;;14.50;99.90;;;;;;5092828;28;20019;-75
2021/04/01 12:00:00;;;;;;;16.48;3.05;;;14.50;99.90;;;;;;5093362;28;20025;-77
2021/04/01 12:02:27;;;;;;;20.90;3.58;;;14.90;99.90;;;;;;5091017;28;20021;-76
2021/04/01 12:04:57;;;;;;;7.05;2.70;;;14.20;99.90;;;;;;5084712;28;20456;-77
2021/04/01 12:07:23;;;;;;;16.38;3.13;;;14.70;99.90;;;;;;5073017;28;20036;-75
2021/04/01 12:09:52;;;;;;;17.00;3.53;;;14.30;99.90;;;;;;5066215;28;20113;-74
2021/04/01 12:12:32;;;;;;;12.43;2.70;;;14.00;99.90;;;;;;5055818;28;20122;-77
2021/04/01 12:14:58;;;;;;;14.88;3.13;;;14.80;99.90;;;;;;5063978;28;20034;-75
2021/04/01 12:17:37;;;;;;;18.80;4.00;;;14.60;99.90;;;;;;5067469;28;20032;-74
2021/04/01 12:20:08;;;;;;;13.80;3.28;;;14.40;99.90;;;;;;5066543;28;20024;-75
2021/04/01 12:22:41;;;;;;;11.77;2.90;;;14.50;99.90;;;;;;5071695;28;20033;-75
2021/04/01 12:25:13;;;;;;;23.67;3.05;;;14.10;99.90;;;;;;5066201;28;20021;-76
2021/04/01 12:27:39;;;;;;;16.35;3.10;;;13.70;99.90;;;;;;5072544;28;20021;-74
2021/04/01 12:30:10;;;;;;;17.63;3.42;;;13.60;99.90;;;;;;5071993;28;20020;-74
2021/04/01 12:32:37;;;;;;;16.05;2.95;;;13.30;99.90;;;;;;5072106;28;20064;-73
2021/04/01 12:35:06;;;;;;;12.20;3.13;;;13.50;99.90;;;;;;5073563;28;20055;-74
2021/04/01 12:37:33;;;;;;;21.83;3.92;;;14.20;99.90;;;;;;5079195;28;20021;-74
2021/04/01 12:40:13;;;;;;;11.82;2.38;;;13.80;99.90;;;;;;5082642;28;20017;-75
2021/04/01 12:42:41;;;;;;;10.63;2.85;;;13.80;99.90;;;;;;5081191;28;20017;-74
2021/04/01 12:45:26;;;;;;;17.52;3.70;;;14.00;99.90;;;;;;5076334;28;20039;-74
2021/04/01 12:48:04;;;;;;;9.65;2.08;;;13.90;99.90;;;;;;5072050;28;20031;-72
2021/04/01 12:50:35;;;;;;;7.78;1.90;;;13.80;99.90;;;;;;5067065;28;20115;-74
2021/04/01 12:53:01;;;;;;;11.90;3.13;;;14.20;99.90;;;;;;5063677;28;20029;-74
2021/04/01 12:55:41;;;;;;;9.77;2.30;;;14.30;99.90;;;;;;5059008;28;20029;-74
2021/04/01 12:58:12;;;;;;;15.57;3.72;;;14.10;99.90;;;;;;5075929;28;20089;-73
2021/04/01 13:01:12;;;;;;;17.15;3.38;;;14.20;99.90;;;;;;5077612;28;20061;-73
2021/04/01 13:03:30;;;;;;;15.13;3.23;;;13.40;99.90;;;;;;5076050;28;20042;-76
2021/04/01 13:06:04;;;;;;;13.02;3.17;;;13.40;99.90;;;;;;5075489;28;20103;-76
2021/04/01 13:08:53;;;;;;;16.90;3.28;;;13.20;99.90;;;;;;5079565;28;20029;-75
2021/04/01 13:11:19;;;;;;;9.38;2.83;;;13.00;99.90;;;;;;5066015;28;20039;-74
2021/04/01 13:13:45;;;;;;;13.93;2.40;;;13.00;99.90;;;;;;5078005;28;20032;-75
2021/04/01 13:16:11;;;;;;;11.68;2.40;;;13.20;99.90;;;;;;5074729;28;20013;-74
2021/04/01 13:18:37;;;;;;;15.10;2.35;;;13.10;99.90;;;;;;5075625;28;20029;-75
2021/04/01 13:21:05;;;;;;;12.68;2.55;;;13.20;99.90;;;;;;5073397;28;20102;-74
2021/04/01 13:23:33;;;;;;;31.83;2.83;;;13.40;99.90;;;;;;5075808;28;20032;-73
2021/04/01 13:26:00;;;;;;;6.82;2.05;;;13.30;99.90;;;;;;5064330;28;20111;-73
2021/04/01 13:28:26;;;;;;;14.65;3.03;;;13.10;99.90;;;;;;5075733;28;20024;-75
2021/04/01 13:31:00;;;;;;;10.57;2.53;;;13.00;99.90;;;;;;5074464;28;20044;-75
2021/04/01 13:33:41;;;;;;;10.23;2.83;;;13.00;99.90;;;;;;5065154;28;20099;-75
2021/04/01 13:36:31;;;;;;;12.77;2.75;;;12.70;99.90;;;;;;5083308;28;20020;-74
2021/04/01 13:38:58;;;;;;;18.45;3.90;;;12.90;99.90;;;;;;5086864;28;20028;-74
2021/04/01 13:41:33;;;;;;;13.57;2.80;;;12.60;99.90;;;;;;5078878;28;20111;-76
2021/04/01 13:44:01;;;;;;;8.25;2.65;;;12.90;99.90;;;;;;5079995;28;20039;-73
2021/04/01 13:46:27;;;;;;;15.57;2.88;;;12.70;99.90;;;;;;5064890;28;20035;-75
2021/04/01 13:48:57;;;;;;;11.32;2.40;;;12.40;99.90;;;;;;5082238;28;20028;-77
2021/04/01 13:51:27;;;;;;;19.40;2.78;;;12.30;99.90;;;;;;5077492;28;20477;-76
2021/04/01 13:54:03;;;;;;;12.70;1.67;;;12.60;99.90;;;;;;5075985;28;20021;-73
2021/04/01 13:56:37;;;;;;;11.05;1.95;;;12.40;99.90;;;;;;5074549;28;20042;-73
2021/04/01 14:10:18;;;;;;;6.88;2.10;;;12.20;99.90;;;;;;5076853;28;20054;-72
2021/04/01 14:12:49;;;;;;;15.73;1.90;;;12.20;99.90;;;;;;5075191;28;20024;-74
2021/04/01 14:15:15;;;;;;;16.98;2.72;;;12.20;99.90;;;;;;5077508;28;20040;-74
2021/04/01 14:17:43;;;;;;;22.05;3.00;;;12.10;99.90;;;;;;5079458;28;20027;-74
2021/04/01 14:20:13;;;;;;;19.85;2.28;;;12.20;99.90;;;;;;5077058;28;20062;-74
2021/04/01 14:22:41;;;;;;;10.50;2.78;;;12.20;99.90;;;;;;5074606;28;20021;-75
2021/04/01 14:25:17;;;;;;;13.43;2.97;;;12.00;99.90;;;;;;5063990;28;20030;-73
2021/04/01 14:27:48;;;;;;;23.15;2.88;;;12.00;99.90;;;;;;5074411;28;20012;-77
2021/04/01 14:30:16;;;;;;;13.88;2.17;;;12.00;99.90;;;;;;5064701;28;20025;-75
2021/04/01 14:32:44;;;;;;;11.82;2.03;;;11.90;99.90;;;;;;5071935;28;20016;-72
2021/04/01 14:35:11;;;;;;;18.77;2.97;;;12.00;99.90;;;;;;5074142;28;20088;-76
2021/04/01 14:37:37;;;;;;;12.80;2.60;;;11.90;99.90;;;;;;5075243;28;20052;-75